Time;durP1;ratioP1;P1;durP2;ratioP2;P2;SDS_P1;SDS_P2;PMS_P1;PMS_P2;Temp;Humidity;BMP_temperature;BMP_pressure;BME280_temperature;BME280_humidity;BME280_pressure;Samples;Min_cycle;Max_cycle;Signal;HPM_P1;HPM_P2
2022/03/20 00:01:09;;;;;;;17.47;14.40;;;;;;;5.36;60.74;97545.31;5023300;28;20544;-54
2022/03/20 00:03:36;;;;;;;18.13;15.23;;;;;;;5.29;60.71;97547.44;5022450;28;20231;-51
2022/03/20 00:06:06;;;;;;;18.37;15.00;;;;;;;5.06;62.14;97544.47;5023040;28;20216;-51
2022/03/20 00:08:33;;;;;;;16.93;14.73;;;;;;;5.13;61.99;97535.31;5023207;28;20207;-53
2022/03/20 00:11:01;;;;;;;19.20;15.40;;;;;;;5.09;62.04;97544.28;5023038;28;20231;-52
2022/03/20 00:13:30;;;;;;;18.53;15.83;;;;;;;5.05;61.65;97546.22;5023509;28;20635;-52
2022/03/20 00:15:57;;;;;;;16.17;14.30;;;;;;;4.99;62.50;97536.91;5026635;28;20262;-52
2022/03/20 00:18:28;;;;;;;20.10;15.20;;;;;;;4.99;62.75;97543.97;5009723;28;20632;-53
2022/03/20 00:20:59;;;;;;;16.77;14.37;;;;;;;4.97;62.43;97538.81;5026400;28;20192;-52
2022/03/20 00:23:28;;;;;;;18.50;14.90;;;;;;;4.86;63.03;97540.31;5026530;28;20521;-52
2022/03/20 00:25:56;;;;;;;17.33;15.33;;;;;;;4.75;63.60;97535.69;5026447;28;20247;-51
2022/03/20 00:28:28;;;;;;;16.77;14.60;;;;;;;4.73;64.02;97537.56;5026891;28;20201;-52
2022/03/20 00:30:55;;;;;;;19.00;15.17;;;;;;;4.69;64.09;97536.03;5027208;28;20208;-53
2022/03/20 00:33:22;;;;;;;17.03;15.17;;;;;;;4.65;64.57;97534.50;5026547;28;20240;-54
2022/03/20 00:35:48;;;;;;;18.70;15.73;;;;;;;4.61;64.53;97535.63;5030400;28;20223;-53
2022/03/20 00:38:15;;;;;;;18.97;15.37;;;;;;;4.56;64.60;97540.28;5040373;28;20207;-53
2022/03/20 00:40:43;;;;;;;17.63;15.63;;;;;;;4.53;65.98;97544.84;5040785;28;20192;-55
2022/03/20 00:43:10;;;;;;;17.67;15.57;;;;;;;4.47;65.72;97535.53;5028729;28;20295;-55
2022/03/20 00:45:36;;;;;;;17.37;15.00;;;;;;;4.44;65.72;97539.16;5033345;28;20276;-54
2022/03/20 00:48:03;;;;;;;17.60;15.47;;;;;;;4.37;65.73;97534.34;5040523;28;20636;-53
2022/03/20 00:50:30;;;;;;;18.57;15.27;;;;;;;4.36;65.63;97540.50;5042732;28;20224;-54
2022/03/20 00:52:56;;;;;;;18.23;16.30;;;;;;;4.21;67.35;97547.44;5031369;28;20514;-53
2022/03/20 00:55:23;;;;;;;19.10;16.30;;;;;;;4.21;66.54;97544.81;5027175;28;20216;-53
2022/03/20 00:57:51;;;;;;;21.17;16.90;;;;;;;4.19;66.86;97546.66;5026852;28;20632;-53
2022/03/20 01:00:19;;;;;;;18.77;16.07;;;;;;;4.07;67.43;97541.25;5009521;28;20207;-53
2022/03/20 01:02:46;;;;;;;18.10;15.77;;;;;;;4.04;67.97;97550.06;5027384;28;20220;-55
2022/03/20 01:05:14;;;;;;;21.17;15.43;;;;;;;4.11;68.03;97545.38;5026969;28;20298;-54
2022/03/20 01:07:41;;;;;;;19.47;16.60;;;;;;;3.98;68.20;97540.78;5025408;28;20227;-52
2022/03/20 01:10:09;;;;;;;19.20;15.53;;;;;;;4.00;68.29;97548.56;5026921;28;20223;-53
2022/03/20 01:12:37;;;;;;;19.53;16.90;;;;;;;3.97;68.13;97541.72;5027166;28;20520;-55
2022/03/20 01:15:08;;;;;;;20.07;16.83;;;;;;;3.96;68.04;97558.34;5027038;28;20271;-54
2022/03/20 01:17:34;;;;;;;20.70;17.17;;;;;;;3.93;68.60;97563.72;5026231;28;20545;-54
2022/03/20 01:20:00;;;;;;;21.23;16.83;;;;;;;3.84;69.12;97552.91;5026388;28;20200;-54
2022/03/20 01:22:28;;;;;;;21.07;17.10;;;;;;;3.83;68.93;97549.44;5025823;28;20215;-53
2022/03/20 01:24:55;;;;;;;18.60;16.57;;;;;;;3.79;69.24;97557.53;5025356;28;20294;-54
2022/03/20 01:27:21;;;;;;;21.37;16.57;;;;;;;3.78;68.99;97551.47;5048312;28;20218;-52
2022/03/20 01:29:47;;;;;;;18.87;16.83;;;;;;;3.80;69.18;97549.59;5049818;28;20199;-53
2022/03/20 01:32:16;;;;;;;19.80;16.40;;;;;;;3.63;70.37;97547.00;5043013;28;20199;-53
2022/03/20 01:34:42;;;;;;;18.50;16.30;;;;;;;3.69;69.67;97544.06;5023663;28;20220;-52
2022/03/20 01:37:09;;;;;;;21.50;16.43;;;;;;;3.74;69.41;97539.47;5023846;28;20209;-53
2022/03/20 01:39:36;;;;;;;19.60;16.37;;;;;;;3.62;69.91;97537.47;5023683;28;20208;-52
2022/03/20 01:42:02;;;;;;;18.63;15.80;;;;;;;3.61;70.03;97543.63;5022928;28;20201;-53
2022/03/20 01:44:32;;;;;;;19.43;16.07;;;;;;;3.60;70.28;97544.56;5022976;28;20219;-53
2022/03/20 01:46:59;;;;;;;19.30;17.03;;;;;;;3.55;70.47;97546.53;5023145;28;20471;-56
2022/03/20 01:49:28;;;;;;;23.80;16.43;;;;;;;3.52;70.59;97551.94;5023351;28;20204;-56
2022/03/20 01:52:14;;;;;;;23.13;17.07;;;;;;;3.50;70.95;97546.81;5023089;28;20752;-56
2022/03/20 01:54:43;;;;;;;18.83;16.70;;;;;;;3.42;71.79;97553.31;5023471;28;20225;-56
2022/03/20 01:57:12;;;;;;;20.93;17.67;;;;;;;3.46;71.23;97549.63;5023301;28;20208;-54
2022/03/20 01:59:38;;;;;;;19.70;17.30;;;;;;;3.46;70.95;97547.03;5023132;28;20198;-56
2022/03/20 02:02:06;;;;;;;19.97;17.20;;;;;;;3.45;71.36;97547.94;5023332;28;20226;-55
2022/03/20 02:04:35;;;;;;;19.87;17.07;;;;;;;3.34;72.04;97552.84;5022953;28;20652;-56
2022/03/20 02:07:02;;;;;;;21.67;17.10;;;;;;;3.36;71.56;97553.66;5022994;28;20642;-55
2022/03/20 02:09:29;;;;;;;22.03;18.67;;;;;;;3.38;72.08;97552.63;5022980;28;20215;-55
2022/03/20 02:11:56;;;;;;;20.20;18.00;;;;;;;3.36;72.68;97554.50;5023114;28;20330;-56
2022/03/20 02:14:23;;;;;;;21.93;17.47;;;;;;;3.48;71.79;97551.25;5022164;28;20631;-56
2022/03/20 02:16:49;;;;;;;21.67;17.80;;;;;;;3.54;71.93;97555.34;5022913;28;20214;-55
2022/03/20 02:19:16;;;;;;;22.47;18.13;;;;;;;3.60;71.61;97562.88;5023223;28;20206;-55
2022/03/20 02:21:46;;;;;;;24.20;19.53;;;;;;;3.63;71.89;97554.00;5022851;28;20857;-57
2022/03/20 02:24:36;;;;;;;22.40;19.33;;;;;;;3.70;72.04;97552.75;5022580;28;20195;-55
2022/03/20 02:27:09;;;;;;;22.97;18.67;;;;;;;3.75;72.40;97556.00;5023707;28;20570;-56
2022/03/20 02:29:36;;;;;;;20.53;17.30;;;;;;;3.81;71.80;97556.53;5025013;28;20527;-56
2022/03/20 02:32:05;;;;;;;21.37;18.90;;;;;;;3.77;72.83;97548.91;5024785;28;20546;-56
2022/03/20 02:34:32;;;;;;;23.50;18.77;;;;;;;3.83;72.47;97546.81;5031003;28;20275;-54
2022/03/20 02:37:04;;;;;;;22.53;18.73;;;;;;;3.84;73.32;97553.75;5029844;28;20351;-54
2022/03/20 02:39:32;;;;;;;22.63;19.13;;;;;;;3.87;72.61;97553.59;5039886;28;20207;-55
2022/03/20 02:42:01;;;;;;;22.17;19.60;;;;;;;3.89;72.32;97556.13;5027718;28;20199;-52
2022/03/20 02:44:50;;;;;;;21.83;18.30;;;;;;;3.97;72.66;97557.41;5022423;28;20195;-53
2022/03/20 02:47:20;;;;;;;23.40;18.77;;;;;;;3.96;72.79;97549.66;5021494;28;20205;-54
2022/03/20 02:49:48;;;;;;;22.73;18.43;;;;;;;3.97;72.56;97549.56;5021445;28;20314;-52
2022/03/20 02:52:16;;;;;;;21.33;18.97;;;;;;;4.05;71.64;97545.69;5021729;28;20224;-53
2022/03/20 02:54:43;;;;;;;22.53;19.23;;;;;;;4.03;72.14;97544.94;5021675;28;20298;-56
2022/03/20 02:57:09;;;;;;;21.27;19.03;;;;;;;3.97;71.58;97546.94;5021860;28;20215;-55
2022/03/20 02:59:36;;;;;;;20.53;18.30;;;;;;;4.07;72.16;97551.72;5022287;28;20219;-54
2022/03/20 03:02:03;;;;;;;23.37;18.57;;;;;;;4.07;71.72;97549.09;5022024;28;20207;-55
2022/03/20 03:04:29;;;;;;;22.57;19.07;;;;;;;4.01;72.83;97550.25;5021589;28;20584;-55
2022/03/20 03:07:01;;;;;;;20.40;18.30;;;;;;;3.98;71.57;97558.25;5021877;28;20530;-55
2022/03/20 03:12:13;;;;;;;21.27;18.83;;;;;;;3.89;72.08;97564.84;5022530;28;20269;-55
2022/03/20 03:17:28;;;;;;;22.90;19.57;;;;;;;3.79;72.71;97562.78;5022058;28;20228;-54
2022/03/20 03:19:55;;;;;;;22.00;18.53;;;;;;;3.81;72.20;97561.75;5022345;28;20266;-55
2022/03/20 03:22:22;;;;;;;22.73;18.37;;;;;;;3.74;73.13;97570.84;5021866;28;20233;-53
2022/03/20 03:24:51;;;;;;;21.93;18.17;;;;;;;3.68;73.03;97571.16;5021626;28;20237;-53
2022/03/20 03:27:18;;;;;;;22.30;18.87;;;;;;;3.68;73.33;97563.31;5021560;28;20221;-53
2022/03/20 03:29:44;;;;;;;22.27;19.20;;;;;;;3.68;73.93;97575.56;5021623;28;20218;-52
2022/03/20 03:32:11;;;;;;;24.17;19.93;;;;;;;3.67;72.88;97569.47;5021215;28;20515;-55
2022/03/20 03:37:22;;;;;;;22.77;20.27;;;;;;;3.64;74.09;97577.47;5021990;28;20205;-53
2022/03/20 03:39:49;;;;;;;24.37;19.83;;;;;;;3.67;73.44;97569.47;5022830;28;20202;-53
2022/03/20 03:42:17;;;;;;;23.07;19.97;;;;;;;3.66;73.39;97577.38;5022516;28;20211;-53
2022/03/20 03:44:43;;;;;;;23.93;20.83;;;;;;;3.63;73.83;97578.41;5023354;28;20207;-54
2022/03/20 03:47:10;;;;;;;24.60;20.77;;;;;;;3.69;74.02;97577.22;5026255;28;20203;-55
2022/03/20 03:49:36;;;;;;;23.00;19.50;;;;;;;3.67;74.14;97584.31;5030977;28;20232;-53
2022/03/20 03:52:03;;;;;;;21.60;19.30;;;;;;;3.66;74.13;97583.47;5039824;28;20236;-54
2022/03/20 03:54:30;;;;;;;23.07;20.17;;;;;;;3.59;75.26;97587.31;5041630;28;20207;-54
2022/03/20 03:56:58;;;;;;;23.97;19.37;;;;;;;3.66;74.24;97591.31;5039014;28;20211;-53
2022/03/20 03:59:26;;;;;;;24.57;19.60;;;;;;;3.68;74.12;97593.88;5038216;28;20230;-55
2022/03/20 04:01:52;;;;;;;24.27;19.40;;;;;;;3.67;74.68;97595.63;5038735;28;20200;-56
2022/03/20 04:04:19;;;;;;;22.43;18.40;;;;;;;3.71;74.20;97591.94;5036346;28;20222;-56
2022/03/20 04:06:45;;;;;;;25.33;19.80;;;;;;;3.68;74.21;97597.34;5037170;28;20211;-56
2022/03/20 04:09:11;;;;;;;23.50;19.37;;;;;;;3.67;74.30;97593.00;5036473;28;20199;-57
2022/03/20 04:11:38;;;;;;;27.20;20.20;;;;;;;3.66;74.07;97598.31;5036406;28;20227;-56
2022/03/20 04:14:05;;;;;;;23.87;19.87;;;;;;;3.59;74.21;97600.38;5033233;28;20211;-55
2022/03/20 04:16:33;;;;;;;22.60;18.97;;;;;;;3.48;74.26;97598.31;5034272;28;20207;-56
2022/03/20 04:18:59;;;;;;;23.70;20.07;;;;;;;3.46;75.23;97601.94;5033466;28;20234;-56
2022/03/20 04:21:26;;;;;;;24.00;19.90;;;;;;;3.48;74.51;97606.16;5024772;28;20204;-55
2022/03/20 04:23:52;;;;;;;25.20;19.97;;;;;;;3.47;74.41;97608.88;5025073;28;20208;-53
2022/03/20 04:26:21;;;;;;;24.27;20.60;;;;;;;3.50;74.17;97609.56;5024321;28;20207;-54
2022/03/20 04:28:49;;;;;;;25.97;21.27;;;;;;;3.50;74.30;97616.56;5024550;28;20213;-53
2022/03/20 04:31:16;;;;;;;23.20;19.90;;;;;;;3.52;74.26;97622.53;5024423;28;20231;-54
2022/03/20 04:33:44;;;;;;;21.00;18.77;;;;;;;3.51;74.78;97623.44;5024087;28;20234;-53
2022/03/20 04:36:10;;;;;;;24.07;19.87;;;;;;;3.55;74.31;97621.53;5024532;28;20249;-55
2022/03/20 04:38:37;;;;;;;23.63;19.70;;;;;;;3.58;74.53;97619.63;5024177;28;20210;-54
2022/03/20 04:41:05;;;;;;;22.77;19.30;;;;;;;3.63;74.32;97620.25;5024548;28;20199;-54
2022/03/20 04:43:32;;;;;;;24.13;19.57;;;;;;;3.65;73.70;97626.22;5023641;28;20873;-55
2022/03/20 04:46:00;;;;;;;23.97;19.90;;;;;;;3.68;73.03;97628.72;5024425;28;20215;-53
2022/03/20 04:59:24;;;;;;;23.33;19.93;;;;;;;3.83;72.39;97643.63;5036371;28;20284;-53
2022/03/20 05:01:50;;;;;;;22.77;19.53;;;;;;;3.90;71.67;97646.78;5024368;28;20506;-54
2022/03/20 05:04:17;;;;;;;24.33;19.47;;;;;;;3.88;72.28;97646.88;5041523;28;20215;-55
2022/03/20 05:06:45;;;;;;;26.30;20.70;;;;;;;3.88;72.05;97652.09;5046555;28;20190;-54
2022/03/20 05:14:40;;;;;;;23.20;19.60;;;;;;;3.94;71.21;97662.25;5023864;28;20235;-54
2022/03/20 05:17:07;;;;;;;22.03;19.50;;;;;;;3.96;71.10;97665.66;5024272;28;20214;-54
2022/03/20 05:19:34;;;;;;;23.03;19.50;;;;;;;4.00;70.36;97661.91;5024041;28;20218;-53
2022/03/20 05:22:03;;;;;;;23.07;19.53;;;;;;;3.91;70.09;97657.16;5024115;28;20236;-54
2022/03/20 05:24:29;;;;;;;24.03;19.60;;;;;;;3.90;70.67;97658.09;5024099;28;20219;-53
2022/03/20 05:26:56;;;;;;;24.23;19.30;;;;;;;3.91;70.81;97665.03;5023886;28;20203;-55
2022/03/20 05:29:23;;;;;;;21.40;19.10;;;;;;;3.93;71.03;97665.78;5006625;28;20211;-53
2022/03/20 05:31:50;;;;;;;22.70;18.93;;;;;;;3.89;71.76;97666.03;5023805;28;20256;-52
2022/03/20 05:34:16;;;;;;;23.43;19.17;;;;;;;3.88;71.38;97667.78;5023335;28;20254;-52
2022/03/20 05:36:43;;;;;;;23.57;19.93;;;;;;;3.91;71.12;97672.03;5023976;28;20273;-54
2022/03/20 05:39:11;;;;;;;22.20;19.43;;;;;;;3.88;71.27;97672.19;5024188;28;20242;-53
2022/03/20 05:41:51;;;;;;;24.70;19.87;;;;;;;3.84;71.78;97678.47;5023765;28;20200;-54
2022/03/20 05:44:21;;;;;;;22.87;19.10;;;;;;;3.79;72.08;97677.88;5023444;28;20271;-54
2022/03/20 05:46:50;;;;;;;22.50;19.73;;;;;;;3.80;72.18;97669.94;5023050;28;20226;-53
2022/03/20 05:49:17;;;;;;;24.70;20.30;;;;;;;3.76;72.06;97678.88;5022895;28;20657;-53
2022/03/20 05:51:44;;;;;;;24.03;20.20;;;;;;;3.79;72.46;97675.28;5023026;28;20747;-53
2022/03/20 05:54:12;;;;;;;23.40;20.50;;;;;;;3.72;72.65;97687.78;5023628;28;20207;-53
2022/03/20 05:59:22;;;;;;;23.33;19.27;;;;;;;3.82;72.23;97689.03;5023004;28;20241;-52
2022/03/20 06:01:50;;;;;;;23.73;20.60;;;;;;;3.78;71.82;97692.72;5023199;28;20208;-54
2022/03/20 06:04:16;;;;;;;23.33;20.27;;;;;;;3.81;72.30;97696.97;5023193;28;20207;-52
2022/03/20 06:06:43;;;;;;;21.70;19.40;;;;;;;3.93;72.20;97707.66;5023033;28;20207;-52
2022/03/20 06:09:10;;;;;;;22.93;19.37;;;;;;;3.83;71.44;97697.72;5022910;28;20638;-54
2022/03/20 06:11:38;;;;;;;24.73;20.07;;;;;;;4.08;71.42;97697.34;5046172;28;20230;-56
2022/03/20 06:14:06;;;;;;;26.13;23.13;;;;;;;4.33;70.72;97696.00;5050372;28;20200;-53
2022/03/20 06:16:32;;;;;;;23.10;20.73;;;;;;;4.80;68.64;97705.78;5041695;28;20200;-54
2022/03/20 06:18:59;;;;;;;24.07;21.50;;;;;;;4.80;68.42;97714.47;5023982;28;20575;-53
2022/03/20 06:21:26;;;;;;;23.67;21.17;;;;;;;5.14;67.63;97710.03;5023220;28;20636;-53
2022/03/20 06:23:54;;;;;;;31.43;28.17;;;;;;;5.36;66.99;97718.41;5023715;28;20239;-53
2022/03/20 06:26:20;;;;;;;27.07;24.10;;;;;;;5.89;65.08;97716.28;5023433;28;20249;-54
2022/03/20 06:28:49;;;;;;;25.20;22.43;;;;;;;6.41;62.69;97718.50;5023846;28;20204;-54
2022/03/20 06:31:16;;;;;;;25.60;22.90;;;;;;;6.60;62.67;97726.09;5024108;28;20296;-53
2022/03/20 06:33:43;;;;;;;24.73;22.13;;;;;;;6.95;61.56;97720.38;5024194;28;20244;-53
2022/03/20 06:36:10;;;;;;;24.10;21.60;;;;;;;7.13;60.54;97720.19;5026457;28;20201;-54
2022/03/20 06:38:37;;;;;;;23.13;20.70;;;;;;;7.44;59.02;97722.56;5008553;28;20219;-54
2022/03/20 06:41:04;;;;;;;21.80;19.57;;;;;;;8.13;56.27;97726.84;5046134;28;20187;-54
2022/03/20 06:43:31;;;;;;;21.77;19.67;;;;;;;8.47;53.96;97731.59;5047630;28;20180;-54
2022/03/20 06:45:59;;;;;;;21.90;19.60;;;;;;;8.36;53.71;97731.50;5039850;28;20572;-54
2022/03/20 06:48:25;;;;;;;21.03;18.83;;;;;;;8.40;54.10;97730.31;5022480;28;20277;-54
2022/03/20 06:50:52;;;;;;;22.37;20.07;;;;;;;8.84;53.95;97730.78;5022324;28;20208;-53
2022/03/20 06:53:18;;;;;;;21.63;19.13;;;;;;;9.31;51.47;97737.16;5021748;28;20220;-54
2022/03/20 06:55:45;;;;;;;23.17;19.00;;;;;;;9.76;50.89;97741.78;5022248;28;20652;-53
2022/03/20 06:58:13;;;;;;;22.10;19.70;;;;;;;9.58;51.21;97748.41;5022199;28;20274;-54
2022/03/20 07:00:40;;;;;;;23.93;21.10;;;;;;;10.26;49.17;97748.69;5022622;28;20262;-54
2022/03/20 07:03:09;;;;;;;20.67;18.47;;;;;;;9.95;49.45;97736.03;5022023;28;20204;-54
2022/03/20 07:05:36;;;;;;;21.73;19.43;;;;;;;10.22;49.34;97735.81;5022224;28;20213;-54
2022/03/20 07:08:05;;;;;;;21.67;19.37;;;;;;;9.64;51.13;97744.47;5021888;28;20215;-55
2022/03/20 07:10:32;;;;;;;22.00;19.17;;;;;;;9.65;49.54;97739.06;5022025;28;20207;-53
2022/03/20 07:15:39;;;;;;;21.83;19.53;;;;;;;8.74;53.85;97734.16;5020376;28;20200;-54
2022/03/20 07:18:07;;;;;;;23.20;20.80;;;;;;;8.37;53.85;97741.91;5021534;28;20207;-53
2022/03/20 07:20:34;;;;;;;21.03;18.83;;;;;;;8.32;53.50;97741.38;5021135;28;20675;-54
2022/03/20 07:23:01;;;;;;;21.97;19.60;;;;;;;8.15;54.30;97751.31;5018460;28;21242;-53
2022/03/20 07:30:56;;;;;;;24.87;20.30;;;;;;;8.06;55.70;97751.91;5022449;28;20215;-54
2022/03/20 07:33:24;;;;;;;21.67;19.37;;;;;;;8.08;55.20;97755.31;5022104;28;20272;-53
2022/03/20 07:35:51;;;;;;;22.43;20.03;;;;;;;8.03;55.08;97758.25;5022402;28;20215;-54
2022/03/20 07:38:18;;;;;;;25.00;20.90;;;;;;;8.01;55.60;97755.69;5023183;28;20200;-53
2022/03/20 07:40:44;;;;;;;22.93;20.47;;;;;;;7.87;53.67;97758.38;5025800;28;20201;-55
2022/03/20 07:43:11;;;;;;;21.47;19.20;;;;;;;7.94;54.48;97753.53;5021618;28;20204;-54
2022/03/20 07:45:37;;;;;;;21.83;19.57;;;;;;;7.80;55.72;97754.44;5021466;28;20564;-52
2022/03/20 07:48:04;;;;;;;22.37;20.00;;;;;;;8.05;55.61;97760.75;5003886;28;20212;-55
2022/03/20 07:50:32;;;;;;;21.60;19.27;;;;;;;7.94;54.88;97759.66;5021463;28;20208;-54
2022/03/20 07:52:59;;;;;;;24.47;19.93;;;;;;;7.97;54.04;97764.72;5021594;28;21461;-53
2022/03/20 07:55:27;;;;;;;22.57;19.40;;;;;;;8.08;54.74;97760.56;5020715;28;20546;-54
2022/03/20 07:57:53;;;;;;;23.87;20.30;;;;;;;8.10;56.00;97758.69;5021406;28;20668;-53
2022/03/20 08:00:20;;;;;;;26.20;19.60;;;;;;;8.13;54.93;97755.84;5021904;28;20211;-55
2022/03/20 08:02:47;;;;;;;22.77;19.67;;;;;;;8.12;54.32;97768.16;5021446;28;20286;-55
2022/03/20 08:05:13;;;;;;;21.60;18.90;;;;;;;8.15;54.32;97761.88;5021013;28;20674;-54
2022/03/20 08:07:42;;;;;;;22.97;20.27;;;;;;;8.34;54.63;97770.25;5021248;28;20582;-54
2022/03/20 08:10:10;;;;;;;23.27;20.40;;;;;;;8.35;54.09;97769.31;5021607;28;20209;-54
2022/03/20 08:12:37;;;;;;;22.10;19.67;;;;;;;8.31;54.09;97759.94;5021047;28;20220;-54
2022/03/20 08:15:05;;;;;;;23.53;20.03;;;;;;;8.48;53.90;97764.91;5003991;28;20223;-54
2022/03/20 08:17:32;;;;;;;22.63;19.30;;;;;;;8.39;53.90;97763.75;5021355;28;20216;-54
2022/03/20 08:19:59;;;;;;;22.47;19.57;;;;;;;8.55;53.69;97771.47;5021140;28;20196;-53
2022/03/20 08:22:26;;;;;;;24.27;20.23;;;;;;;8.64;53.75;97770.88;5021037;28;20613;-53
2022/03/20 08:24:54;;;;;;;23.80;19.10;;;;;;;8.71;53.86;97761.59;5021484;28;20199;-54
2022/03/20 08:27:21;;;;;;;21.40;19.10;;;;;;;8.73;53.90;97764.94;5021583;28;20308;-55
2022/03/20 08:29:47;;;;;;;22.97;19.40;;;;;;;8.85;53.20;97758.84;5021827;28;20203;-54
2022/03/20 08:32:15;;;;;;;21.37;18.70;;;;;;;8.90;52.95;97764.63;5037758;28;20223;-55
2022/03/20 08:34:41;;;;;;;22.73;19.90;;;;;;;8.97;53.17;97762.41;5045628;28;20260;-53
2022/03/20 08:37:08;;;;;;;21.90;19.23;;;;;;;8.94;52.80;97773.19;5046306;28;20212;-54
2022/03/20 08:39:35;;;;;;;23.93;19.53;;;;;;;8.95;52.20;97767.81;5036565;28;20208;-53
2022/03/20 08:42:03;;;;;;;20.67;18.07;;;;;;;9.10;52.49;97778.25;5026529;28;20219;-53
2022/03/20 08:44:29;;;;;;;21.83;18.53;;;;;;;9.03;50.97;97772.56;5027144;28;20234;-54
2022/03/20 08:46:56;;;;;;;20.87;18.77;;;;;;;9.18;50.93;97778.56;5025894;28;20200;-53
2022/03/20 08:49:23;;;;;;;23.20;18.73;;;;;;;9.18;50.76;97776.75;5025256;28;20204;-55
2022/03/20 08:51:49;;;;;;;21.83;18.53;;;;;;;9.15;50.28;97774.34;5024896;28;20227;-54
2022/03/20 08:54:16;;;;;;;20.90;18.63;;;;;;;9.23;49.90;97779.09;5024889;28;20232;-52
2022/03/20 08:56:42;;;;;;;19.97;17.90;;;;;;;9.39;48.82;97783.19;5024727;28;20210;-53
2022/03/20 08:59:10;;;;;;;22.43;18.37;;;;;;;9.57;48.84;97774.91;5024690;28;20266;-55
2022/03/20 09:01:37;;;;;;;20.80;18.00;;;;;;;9.90;48.10;97773.34;5025067;28;20790;-55
2022/03/20 09:04:04;;;;;;;20.37;17.00;;;;;;;10.31;48.00;97774.75;5024851;28;20203;-55
2022/03/20 09:06:31;;;;;;;23.23;17.13;;;;;;;10.77;47.22;97772.19;5024592;28;20201;-55
2022/03/20 09:08:58;;;;;;;18.80;16.80;;;;;;;11.27;45.84;97762.94;5024751;28;20199;-53
2022/03/20 09:11:24;;;;;;;19.73;17.60;;;;;;;11.72;44.90;97764.69;5025584;28;20200;-54
2022/03/20 09:13:50;;;;;;;20.73;17.70;;;;;;;12.07;43.73;97760.97;5028095;28;20255;-54
2022/03/20 09:19:07;;;;;;;20.30;18.20;;;;;;;12.72;42.00;97766.09;5035120;28;20269;-55
2022/03/20 09:21:35;;;;;;;18.00;16.07;;;;;;;12.94;41.54;97764.19;5025294;28;20605;-56
2022/03/20 09:24:03;;;;;;;19.70;17.53;;;;;;;13.31;40.19;97767.22;5030992;28;20231;-55
2022/03/20 09:26:29;;;;;;;20.43;17.13;;;;;;;13.76;39.83;97754.38;5035278;28;20205;-55
2022/03/20 09:28:56;;;;;;;19.33;17.33;;;;;;;13.79;38.63;97754.09;5035866;28;20287;-55
2022/03/20 09:31:24;;;;;;;20.50;17.37;;;;;;;13.87;37.72;97764.91;5027121;28;20209;-55
2022/03/20 09:33:51;;;;;;;18.90;17.00;;;;;;;14.27;38.52;97756.03;5023499;28;20264;-53
2022/03/20 09:36:17;;;;;;;20.40;17.93;;;;;;;14.38;36.31;97758.59;5024011;28;20557;-56
2022/03/20 09:38:44;;;;;;;20.53;18.27;;;;;;;14.70;37.05;97758.31;5023480;28;20200;-55
2022/03/20 09:41:11;;;;;;;20.43;17.97;;;;;;;15.10;36.14;97758.06;5023885;28;20671;-55
2022/03/20 09:43:39;;;;;;;22.83;18.33;;;;;;;15.42;35.27;97762.06;5024903;28;20207;-54
2022/03/20 09:46:06;;;;;;;19.33;17.33;;;;;;;15.49;35.12;97757.00;5023710;28;20196;-54
2022/03/20 09:48:34;;;;;;;21.30;18.00;;;;;;;15.64;34.67;97752.88;5024798;28;20215;-55
2022/03/20 09:51:03;;;;;;;21.80;19.50;;;;;;;16.36;33.74;97760.03;5025391;28;20604;-55
2022/03/20 09:53:30;;;;;;;21.13;18.87;;;;;;;16.67;35.65;97749.84;5024621;28;20243;-56
2022/03/20 09:55:57;;;;;;;21.30;18.67;;;;;;;17.00;33.43;97750.94;5025321;28;20244;-55
2022/03/20 09:58:25;;;;;;;23.42;20.00;;;;;;;17.23;34.23;97752.09;5024258;28;20244;-54
2022/03/20 10:00:52;;;;;;;24.50;20.60;;;;;;;17.83;34.40;97740.41;5024490;28;20663;-55
2022/03/20 10:03:20;;;;;;;22.95;19.63;;;;;;;17.41;31.30;97735.00;5007011;28;20189;-53
2022/03/20 10:06:03;;;;;;;19.95;17.55;;;;;;;17.42;31.05;97741.19;5025269;28;20295;-56
2022/03/20 10:08:32;;;;;;;18.48;16.10;;;;;;;17.72;30.40;97742.53;5024810;28;20192;-55
2022/03/20 10:11:15;;;;;;;16.95;15.25;;;;;;;17.38;28.44;97739.81;5024739;28;20197;-56
2022/03/20 10:14:07;;;;;;;17.80;15.98;;;;;;;17.63;30.26;97743.50;5024405;28;20211;-55
2022/03/20 10:16:33;;;;;;;17.30;15.50;;;;;;;18.20;29.42;97741.84;5025095;28;20204;-55
2022/03/20 10:19:00;;;;;;;17.80;15.82;;;;;;;18.27;28.82;97738.38;5024667;28;20203;-55
2022/03/20 10:24:25;;;;;;;17.48;15.40;;;;;;;18.29;28.58;97738.19;5082444;27;21271;-54
2022/03/20 10:26:53;;;;;;;17.13;15.43;;;;;;;18.57;28.99;97739.59;5081781;28;20202;-55
2022/03/20 10:29:19;;;;;;;15.90;14.20;;;;;;;18.80;29.03;97739.78;5082726;28;20236;-55
2022/03/20 10:31:52;;;;;;;16.25;14.60;;;;;;;18.57;28.98;97734.25;5082517;28;20233;-55
2022/03/20 10:34:20;;;;;;;15.68;14.07;;;;;;;18.43;27.94;97737.53;5084295;28;20194;-54
2022/03/20 10:36:49;;;;;;;14.05;12.82;;;;;;;18.54;26.81;97729.22;5090786;28;20175;-53
2022/03/20 10:39:19;;;;;;;14.75;12.98;;;;;;;18.58;27.15;97738.59;5100018;28;20206;-54
2022/03/20 10:41:48;;;;;;;14.65;13.25;;;;;;;18.76;27.25;97741.13;5101186;28;20209;-54
2022/03/20 10:44:18;;;;;;;13.63;12.32;;;;;;;18.77;25.71;97735.59;5088021;28;20214;-54
2022/03/20 10:46:58;;;;;;;14.27;12.70;;;;;;;18.59;25.72;97737.59;5080820;28;20198;-53
2022/03/20 10:49:28;;;;;;;14.23;12.90;;;;;;;19.12;26.42;97728.19;5086212;28;20233;-54
2022/03/20 10:52:07;;;;;;;14.60;13.13;;;;;;;19.68;26.50;97733.44;5100826;28;20266;-54
2022/03/20 10:54:44;;;;;;;15.10;13.18;;;;;;;19.17;24.89;97723.16;5103510;28;20253;-54
2022/03/20 10:57:12;;;;;;;13.73;12.18;;;;;;;19.21;26.29;97721.81;5093888;28;20277;-54
2022/03/20 10:59:40;;;;;;;13.27;11.77;;;;;;;19.18;24.71;97724.81;5085590;28;20213;-54
2022/03/20 11:02:20;;;;;;;13.30;11.95;;;;;;;19.02;25.54;97720.34;5083774;28;20206;-52
2022/03/20 11:04:49;;;;;;;13.10;11.80;;;;;;;19.12;24.21;97720.16;5087656;28;20208;-53
2022/03/20 11:07:19;;;;;;;13.23;11.88;;;;;;;19.09;24.28;97728.53;5086926;28;20195;-55
2022/03/20 11:09:46;;;;;;;14.75;12.13;;;;;;;19.40;24.49;97721.44;5085009;28;20210;-53
2022/03/20 11:12:18;;;;;;;13.98;12.57;;;;;;;19.60;24.07;97716.53;5083813;28;20259;-54
2022/03/20 11:14:46;;;;;;;13.30;11.90;;;;;;;19.37;24.20;97716.41;5085416;28;20198;-53
2022/03/20 11:17:17;;;;;;;12.93;11.45;;;;;;;19.61;25.44;97721.72;5083516;28;20622;-55
2022/03/20 11:19:50;;;;;;;13.02;11.82;;;;;;;19.59;24.46;97714.88;5084486;28;20288;-53
2022/03/20 11:22:20;;;;;;;13.35;11.57;;;;;;;19.41;24.02;97719.59;5082898;28;20237;-53
2022/03/20 11:24:50;;;;;;;11.65;10.55;;;;;;;19.76;23.79;97711.13;5081977;28;20598;-53
2022/03/20 11:27:23;;;;;;;12.30;11.10;;;;;;;19.32;22.41;97716.91;5079403;28;20198;-55
2022/03/20 11:29:51;;;;;;;11.48;10.38;;;;;;;19.52;22.99;97709.34;5078198;28;20202;-55
2022/03/20 11:32:18;;;;;;;11.07;10.07;;;;;;;20.29;22.64;97707.66;5078214;28;20239;-53
2022/03/20 11:34:47;;;;;;;12.27;10.38;;;;;;;20.25;22.80;97706.31;5071731;28;20325;-53
2022/03/20 11:37:16;;;;;;;12.57;10.75;;;;;;;20.48;23.01;97714.41;5065801;28;20651;-55
2022/03/20 11:40:11;;;;;;;12.00;10.13;;;;;;;20.26;22.21;97702.63;5066406;28;20280;-57
2022/03/20 11:42:39;;;;;;;10.95;9.88;;;;;;;19.91;22.09;97697.78;5065476;28;20566;-56
2022/03/20 11:45:14;;;;;;;11.40;9.57;;;;;;;19.73;23.60;97701.53;5065990;28;20195;-55
2022/03/20 11:47:44;;;;;;;13.50;10.13;;;;;;;19.65;22.32;97698.06;5066493;28;20206;-56
2022/03/20 11:50:17;;;;;;;11.40;10.30;;;;;;;19.74;22.60;97697.84;5066746;28;20213;-55
2022/03/20 11:52:55;;;;;;;11.25;9.13;;;;;;;20.01;22.03;97701.09;5065668;28;20222;-54
2022/03/20 11:55:36;;;;;;;11.02;10.02;;;;;;;19.71;23.97;97698.22;5065406;28;20202;-54
2022/03/20 11:58:06;;;;;;;10.45;9.43;;;;;;;20.02;23.98;97694.69;5064613;28;20210;-55
2022/03/20 12:00:34;;;;;;;11.70;10.60;;;;;;;20.45;22.09;97677.97;5064858;28;20203;-55
2022/03/20 12:03:40;;;;;;;11.35;10.15;;;;;;;20.44;21.73;97678.19;5065596;28;20225;-56
2022/03/20 12:06:21;;;;;;;11.18;10.07;;;;;;;20.17;22.73;97676.81;5065085;28;20505;-55
2022/03/20 12:09:00;;;;;;;11.73;10.13;;;;;;;19.87;22.28;97678.50;5065366;28;20218;-57
2022/03/20 12:11:37;;;;;;;13.98;10.30;;;;;;;19.81;22.53;97677.34;5065448;28;20220;-56